createdAt,value
2019-05-06T00:00:01.230Z,69.36
2019-05-06T00:01:04.984Z,69.19
2019-05-06T00:02:08.484Z,68.86
2019-05-06T00:03:13.822Z,68.48
2019-05-06T00:04:17.354Z,68.22
2019-05-06T00:05:20.920Z,68.13
2019-05-06T00:06:24.422Z,67.80
2019-05-06T00:07:27.937Z,67.63
2019-05-06T00:08:31.368Z,67.62
2019-05-06T00:09:34.979Z,67.92
2019-05-06T00:10:38.551Z,67.96
2019-05-06T00:11:42.089Z,67.95
2019-05-06T00:12:45.541Z,67.91
2019-05-06T00:13:49.054Z,67.95
2019-05-06T00:14:54.160Z,68.02
2019-05-06T00:15:57.850Z,67.90
2019-05-06T00:17:03.732Z,67.75
2019-05-06T00:18:06.594Z,67.58
2019-05-06T00:19:10.175Z,67.56
2019-05-06T00:20:14.678Z,67.56
2019-05-06T00:21:18.251Z,67.64
2019-05-06T00:22:23.791Z,67.92
2019-05-06T00:23:28.752Z,68.03
2019-05-06T00:24:34.796Z,68.21
2019-05-06T00:25:55.987Z,68.33
2019-05-06T00:27:16.755Z,68.34
2019-05-06T00:28:21.832Z,68.33
2019-05-06T00:29:27.208Z,68.31
2019-05-06T00:30:30.705Z,68.25
2019-05-06T00:31:34.640Z,68.09
2019-05-06T00:32:38.153Z,68.04
2019-05-06T00:33:41.655Z,68.12
2019-05-06T00:34:45.088Z,68.04
2019-05-06T00:35:48.516Z,68.05
2019-05-06T00:36:52.019Z,67.96
2019-05-06T00:37:56.018Z,67.92
2019-05-06T00:39:01.094Z,68.17
2019-05-06T00:40:07.000Z,68.36
2019-05-06T00:41:15.188Z,68.37
2019-05-06T00:42:28.734Z,68.32
2019-05-06T00:43:34.350Z,68.35
2019-05-06T00:44:37.329Z,68.35
2019-05-06T00:45:40.766Z,68.42
2019-05-06T00:46:44.202Z,68.43
2019-05-06T00:47:47.626Z,68.54
2019-05-06T00:48:51.082Z,68.50
2019-05-06T00:49:54.786Z,68.67
2019-05-06T00:50:58.254Z,68.92
2019-05-06T00:52:04.117Z,68.95
2019-05-06T00:53:08.490Z,68.90
2019-05-06T00:54:14.287Z,68.92
2019-05-06T00:55:17.945Z,69.03
2019-05-06T00:56:21.379Z,69.15
2019-05-06T00:57:26.591Z,69.39
2019-05-06T00:58:30.060Z,69.47
2019-05-06T00:59:34.563Z,69.43
2019-05-06T01:00:38.536Z,69.53
2019-05-06T01:01:43.495Z,69.49
2019-05-06T01:02:47.049Z,69.82
2019-05-06T01:03:50.508Z,69.85
2019-05-06T01:04:54.333Z,69.79
2019-05-06T01:05:58.053Z,69.80
2019-05-06T01:07:03.776Z,69.95
2019-05-06T01:08:06.916Z,69.94
2019-05-06T01:09:13.999Z,70.00
2019-05-06T01:10:18.067Z,69.84
2019-05-06T01:11:23.761Z,69.75
2019-05-06T01:12:26.725Z,69.73
2019-05-06T01:13:31.866Z,69.71
2019-05-06T01:14:36.960Z,69.85
2019-05-06T01:15:40.533Z,69.69
2019-05-06T01:16:44.058Z,69.49
2019-05-06T01:17:47.537Z,69.46
2019-05-06T01:18:50.975Z,69.33
2019-05-06T01:19:54.558Z,69.09
2019-05-06T01:21:09.953Z,68.90
2019-05-06T01:22:14.060Z,68.80
2019-05-06T01:23:17.533Z,68.65
2019-05-06T01:24:20.990Z,68.64
2019-05-06T01:25:24.567Z,68.42
2019-05-06T01:26:28.064Z,68.23
2019-05-06T01:27:33.640Z,68.06
2019-05-06T01:28:36.713Z,67.95
2019-05-06T01:29:40.158Z,67.86
2019-05-06T01:30:44.353Z,67.75
2019-05-06T01:31:47.990Z,67.90
2019-05-06T01:32:51.458Z,68.15
2019-05-06T01:33:54.958Z,68.26
2019-05-06T01:34:58.434Z,68.30
2019-05-06T01:36:01.912Z,68.49
2019-05-06T01:37:05.474Z,68.63
2019-05-06T01:38:26.661Z,68.66
2019-05-06T01:39:31.726Z,68.69
2019-05-06T01:40:39.581Z,68.94
2019-05-06T01:41:44.815Z,69.04
2019-05-06T01:42:58.451Z,69.16
2019-05-06T01:44:04.105Z,69.30
2019-05-06T01:45:07.896Z,69.57
2019-05-06T01:46:11.491Z,69.70
2019-05-06T01:47:14.917Z,69.80
2019-05-06T01:48:19.997Z,69.87
2019-05-06T01:49:24.499Z,69.96
2019-05-06T01:50:28.344Z,70.02
2019-05-06T01:51:31.846Z,70.05
2019-05-06T01:52:35.409Z,69.94
2019-05-06T01:53:38.863Z,69.82
2019-05-06T01:54:43.452Z,69.83
2019-05-06T01:55:46.922Z,70.15
2019-05-06T01:56:50.444Z,70.32
2019-05-06T01:57:54.551Z,70.32
2019-05-06T01:58:58.071Z,70.42
2019-05-06T02:00:01.647Z,70.42
2019-05-06T02:01:05.251Z,70.39
2019-05-06T02:02:08.816Z,70.52
2019-05-06T02:03:12.246Z,70.62
2019-05-06T02:04:15.813Z,70.58
2019-05-06T02:05:19.312Z,70.57
2019-05-06T02:06:24.806Z,70.48
2019-05-06T02:07:28.067Z,70.43
2019-05-06T02:08:33.576Z,70.27
2019-05-06T02:09:36.793Z,70.29
2019-05-06T02:10:40.221Z,70.35
2019-05-06T02:11:45.174Z,70.30
2019-05-06T02:12:48.906Z,70.25
2019-05-06T02:13:53.792Z,70.28
2019-05-06T02:14:57.334Z,70.22
2019-05-06T02:16:00.905Z,70.34
2019-05-06T02:17:04.513Z,70.38
2019-05-06T02:18:07.941Z,70.32
2019-05-06T02:19:11.436Z,70.35
2019-05-06T02:20:15.008Z,70.35
2019-05-06T02:21:29.013Z,70.33
2019-05-06T02:22:39.814Z,70.22
2019-05-06T02:24:00.981Z,70.06
2019-05-06T02:25:07.990Z,69.92
2019-05-06T02:26:11.414Z,69.83
2019-05-06T02:27:14.941Z,69.70
2019-05-06T02:28:18.372Z,69.65
2019-05-06T02:29:24.698Z,69.72
2019-05-06T02:30:36.713Z,69.96
2019-05-06T02:31:46.017Z,70.17
2019-05-06T02:33:09.155Z,69.94
2019-05-06T02:34:17.180Z,69.85
2019-05-06T02:35:26.420Z,69.66
2019-05-06T02:36:34.244Z,69.61
2019-05-06T02:37:41.311Z,69.52
2019-05-06T02:38:50.550Z,69.38
2019-05-06T02:39:53.149Z,69.27
2019-05-06T02:40:55.492Z,69.19
2019-05-06T02:41:58.957Z,69.18
2019-05-06T02:43:03.460Z,68.94
2019-05-06T02:44:10.231Z,68.89
2019-05-06T02:45:12.791Z,69.09
2019-05-06T02:46:16.197Z,69.02
2019-05-06T02:47:30.044Z,68.90
2019-05-06T02:48:49.766Z,68.88
2019-05-06T02:49:54.904Z,68.93
2019-05-06T02:50:59.980Z,69.00
2019-05-06T02:52:03.494Z,69.06
2019-05-06T02:53:06.918Z,69.24
2019-05-06T02:54:13.375Z,69.33
2019-05-06T02:55:15.741Z,69.44
2019-05-06T02:56:19.177Z,69.72
2019-05-06T02:57:23.853Z,69.67
2019-05-06T02:58:27.468Z,69.84
2019-05-06T02:59:33.103Z,69.79
2019-05-06T03:00:36.118Z,69.66
2019-05-06T03:01:39.621Z,69.37
2019-05-06T03:02:47.106Z,69.14
2019-05-06T03:03:48.444Z,68.98
2019-05-06T03:04:52.873Z,69.04
2019-05-06T03:05:56.494Z,68.89
2019-05-06T03:07:03.418Z,68.80
2019-05-06T03:08:05.146Z,68.59
2019-05-06T03:09:08.723Z,68.40
2019-05-06T03:10:17.524Z,68.39
2019-05-06T03:11:23.756Z,68.44
2019-05-06T03:12:26.453Z,68.34
2019-05-06T03:13:29.879Z,68.13
2019-05-06T03:14:34.667Z,68.17
2019-05-06T03:15:38.398Z,68.06
2019-05-06T03:16:43.974Z,68.13
2019-05-06T03:17:47.274Z,68.10
2019-05-06T03:18:53.101Z,67.99
2019-05-06T03:19:57.480Z,68.18
2019-05-06T03:21:05.556Z,68.12
2019-05-06T03:22:27.877Z,67.94
2019-05-06T03:23:34.780Z,67.75
2019-05-06T03:24:45.950Z,67.88
2019-05-06T03:25:49.454Z,67.72
2019-05-06T03:26:57.065Z,67.71
2019-05-06T03:27:59.180Z,67.64
2019-05-06T03:29:03.098Z,67.79
2019-05-06T03:30:07.891Z,67.86
2019-05-06T03:31:15.662Z,67.76
2019-05-06T03:32:23.105Z,67.66
2019-05-06T03:33:44.681Z,67.54
2019-05-06T03:34:48.849Z,67.45
2019-05-06T03:35:44.309Z,67.30
2019-05-06T03:36:41.060Z,67.37
2019-05-06T03:37:44.072Z,67.33
2019-05-06T03:38:47.870Z,67.45
2019-05-06T03:39:52.851Z,67.37
2019-05-06T03:40:56.830Z,67.22
2019-05-06T03:42:00.253Z,67.21
2019-05-06T03:43:03.767Z,67.25
2019-05-06T03:44:07.262Z,67.18
2019-05-06T03:45:13.312Z,67.12
2019-05-06T03:46:23.217Z,67.12
2019-05-06T03:47:28.088Z,67.17
2019-05-06T03:48:36.001Z,67.14
2019-05-06T03:49:42.572Z,67.15
2019-05-06T03:50:46.385Z,67.04
2019-05-06T03:51:49.829Z,67.05
2019-05-06T03:52:56.346Z,67.06
2019-05-06T03:54:02.803Z,67.01
2019-05-06T03:55:05.616Z,67.13
2019-05-06T03:56:09.937Z,67.10
2019-05-06T03:57:14.309Z,67.18
2019-05-06T03:58:26.353Z,67.49
2019-05-06T03:59:25.915Z,67.52
2019-05-06T04:00:29.346Z,67.47
2019-05-06T04:01:33.683Z,67.30
2019-05-06T04:02:39.720Z,67.06
2019-05-06T04:03:48.712Z,66.94
2019-05-06T04:04:47.839Z,66.87
2019-05-06T04:05:52.540Z,66.76
2019-05-06T04:06:57.504Z,66.66
2019-05-06T04:08:03.860Z,66.62
2019-05-06T04:09:07.642Z,66.73
2019-05-06T04:10:13.641Z,66.74
2019-05-06T04:11:18.629Z,66.76
2019-05-06T04:12:23.531Z,66.91
2019-05-06T04:13:27.550Z,67.05
2019-05-06T04:14:33.771Z,66.96
2019-05-06T04:15:48.244Z,66.79
2019-05-06T04:16:53.559Z,66.67
2019-05-06T04:18:03.874Z,66.52
2019-05-06T04:19:13.100Z,66.63
2019-05-06T04:20:34.552Z,66.69
2019-05-06T04:21:45.846Z,66.67
2019-05-06T04:22:53.600Z,66.89
2019-05-06T04:24:04.166Z,67.00
2019-05-06T04:25:24.957Z,67.12
2019-05-06T04:26:35.981Z,67.16
2019-05-06T04:27:53.728Z,67.18
2019-05-06T04:28:57.385Z,67.09
2019-05-06T04:30:04.284Z,67.00
2019-05-06T04:31:06.683Z,66.90
2019-05-06T04:32:10.280Z,66.83
2019-05-06T04:33:17.301Z,66.84
2019-05-06T04:34:19.979Z,66.88
2019-05-06T04:35:24.316Z,66.97
2019-05-06T04:36:28.191Z,67.00
2019-05-06T04:37:33.911Z,66.91
2019-05-06T04:38:37.530Z,66.79
2019-05-06T04:39:43.418Z,66.61
2019-05-06T04:40:47.189Z,66.53
2019-05-06T04:41:53.625Z,66.46
2019-05-06T04:42:56.083Z,66.64
2019-05-06T04:44:02.732Z,66.70
2019-05-06T04:45:05.706Z,66.77
2019-05-06T04:46:09.291Z,66.75
2019-05-06T04:47:14.913Z,66.51
2019-05-06T04:48:18.164Z,66.42
2019-05-06T04:49:23.699Z,66.22
2019-05-06T04:50:26.976Z,65.83
2019-05-06T04:51:32.815Z,65.62
2019-05-06T04:52:35.763Z,65.80
2019-05-06T04:53:39.397Z,65.86
2019-05-06T04:54:44.095Z,65.91
2019-05-06T04:55:47.736Z,65.76
2019-05-06T04:56:53.651Z,65.80
2019-05-06T04:57:57.387Z,65.87
2019-05-06T04:59:05.761Z,65.84
2019-05-06T05:00:07.332Z,65.86
2019-05-06T05:01:13.003Z,65.84
2019-05-06T05:02:16.766Z,65.85
2019-05-06T05:03:22.775Z,65.73
2019-05-06T05:04:32.133Z,65.69
2019-05-06T05:05:33.102Z,65.66
2019-05-06T05:06:36.095Z,65.80
2019-05-06T05:07:39.606Z,66.05
2019-05-06T05:08:43.391Z,66.18
2019-05-06T05:09:46.956Z,66.17
2019-05-06T05:10:53.109Z,66.28
2019-05-06T05:11:58.462Z,66.33
2019-05-06T05:13:06.391Z,66.46
2019-05-06T05:14:14.275Z,66.38
2019-05-06T05:15:35.577Z,66.55
2019-05-06T05:16:43.587Z,66.84
2019-05-06T05:18:04.741Z,66.84
2019-05-06T05:19:12.629Z,66.87
2019-05-06T05:20:16.194Z,67.30
2019-05-06T05:21:19.769Z,67.41
2019-05-06T05:22:23.217Z,67.50
2019-05-06T05:23:26.823Z,67.79
2019-05-06T05:24:31.723Z,67.71
2019-05-06T05:25:35.278Z,67.57
2019-05-06T05:26:39.135Z,67.60
2019-05-06T05:27:42.636Z,67.74
2019-05-06T05:28:46.140Z,67.69
2019-05-06T05:29:49.732Z,67.66
2019-05-06T05:30:53.370Z,67.59
2019-05-06T05:31:56.867Z,67.42
2019-05-06T05:33:02.494Z,67.19
2019-05-06T05:34:05.551Z,66.95
2019-05-06T05:35:09.047Z,67.10
2019-05-06T05:36:12.624Z,67.01
2019-05-06T05:37:16.390Z,66.88
2019-05-06T05:38:20.063Z,66.72
2019-05-06T05:39:23.847Z,66.72
2019-05-06T05:40:27.712Z,66.58
2019-05-06T05:41:33.172Z,66.37
2019-05-06T05:42:38.224Z,66.31
2019-05-06T05:43:43.939Z,66.47
2019-05-06T05:44:49.222Z,66.58
2019-05-06T05:45:52.986Z,66.53
2019-05-06T05:46:56.551Z,66.55
2019-05-06T05:48:02.842Z,66.46
2019-05-06T05:49:08.303Z,66.40
2019-05-06T05:50:16.418Z,66.36
2019-05-06T05:51:19.891Z,66.46
2019-05-06T05:52:23.760Z,66.49
2019-05-06T05:53:28.434Z,66.35
2019-05-06T05:54:33.188Z,66.29
2019-05-06T05:55:36.875Z,66.11
2019-05-06T05:56:40.434Z,65.58
2019-05-06T05:57:44.107Z,65.37
2019-05-06T05:58:47.785Z,65.41
2019-05-06T05:59:52.849Z,65.67
2019-05-06T06:00:56.527Z,65.85
2019-05-06T06:02:00.095Z,65.75
2019-05-06T06:03:06.862Z,65.96
2019-05-06T06:04:08.967Z,65.82
2019-05-06T06:05:12.539Z,65.23
2019-05-06T06:06:16.468Z,64.88
2019-05-06T06:07:20.047Z,64.84
2019-05-06T06:08:24.801Z,64.76
2019-05-06T06:09:32.763Z,64.66
2019-05-06T06:10:42.475Z,64.80
2019-05-06T06:11:50.298Z,64.83
2019-05-06T06:12:54.938Z,64.78
2019-05-06T06:14:00.164Z,64.65
2019-05-06T06:15:06.476Z,64.84
2019-05-06T06:16:17.346Z,64.82
2019-05-06T06:17:32.573Z,64.73
2019-05-06T06:18:53.698Z,64.48
2019-05-06T06:20:07.599Z,64.48
2019-05-06T06:21:24.707Z,64.31
2019-05-06T06:22:25.805Z,64.05
2019-05-06T06:23:32.418Z,64.07
2019-05-06T06:24:36.590Z,64.04
2019-05-06T06:25:42.243Z,63.80
2019-05-06T06:26:45.667Z,63.77
2019-05-06T06:27:52.087Z,63.39
2019-05-06T06:28:55.820Z,63.22
2019-05-06T06:29:59.607Z,62.99
2019-05-06T06:31:19.679Z,62.83
2019-05-06T06:32:24.856Z,62.67
2019-05-06T06:33:28.415Z,62.33
2019-05-06T06:34:42.725Z,61.85
2019-05-06T06:35:51.992Z,61.85
2019-05-06T06:36:57.277Z,61.76
2019-05-06T06:38:02.794Z,61.94
2019-05-06T06:39:12.488Z,61.87
2019-05-06T06:40:18.109Z,61.69
2019-05-06T06:41:22.796Z,61.84
2019-05-06T06:42:26.495Z,61.67
2019-05-06T06:43:32.290Z,61.61
2019-05-06T06:44:36.505Z,60.64
2019-05-06T06:45:42.040Z,59.98
2019-05-06T06:46:45.625Z,60.16
2019-05-06T06:47:49.234Z,60.04
2019-05-06T06:48:52.823Z,60.04
2019-05-06T06:49:56.229Z,60.08
2019-05-06T06:51:00.196Z,59.00
2019-05-06T06:52:10.511Z,59.53
2019-05-06T06:53:09.017Z,59.69
2019-05-06T06:54:12.501Z,59.99
2019-05-06T06:55:18.455Z,60.03
2019-05-06T06:56:26.184Z,60.00
2019-05-06T06:57:43.140Z,59.54
2019-05-06T06:59:08.268Z,59.07
2019-05-06T07:00:33.600Z,58.69
2019-05-06T07:01:42.323Z,59.06
2019-05-06T07:02:53.400Z,59.28
2019-05-06T07:03:59.702Z,59.02
2019-05-06T07:05:24.429Z,59.20
2019-05-06T07:06:18.636Z,59.12
2019-05-06T07:07:23.703Z,59.17
2019-05-06T07:08:36.595Z,59.18
2019-05-06T07:09:32.463Z,59.21
2019-05-06T07:10:44.831Z,58.87
2019-05-06T07:11:48.260Z,58.00
2019-05-06T07:12:53.259Z,58.09
2019-05-06T07:13:56.967Z,58.02
2019-05-06T07:15:02.261Z,57.91
2019-05-06T07:16:05.693Z,58.07
2019-05-06T07:17:09.200Z,58.23
2019-05-06T07:18:13.666Z,58.45
2019-05-06T07:19:18.964Z,58.66
2019-05-06T07:20:24.133Z,58.71
2019-05-06T07:21:43.334Z,58.56
2019-05-06T07:22:45.960Z,58.74
2019-05-06T07:23:49.491Z,58.88
2019-05-06T07:24:52.930Z,58.76
2019-05-06T07:25:56.626Z,57.72
2019-05-06T07:27:03.037Z,57.31
2019-05-06T07:28:06.545Z,57.48
2019-05-06T07:29:15.296Z,56.93
2019-05-06T07:30:15.304Z,56.47
2019-05-06T07:31:23.775Z,56.62
2019-05-06T07:32:24.084Z,56.67
2019-05-06T07:33:27.656Z,56.85
2019-05-06T07:34:32.193Z,56.87
2019-05-06T07:35:40.424Z,56.62
2019-05-06T07:36:42.979Z,56.80
2019-05-06T07:37:46.312Z,56.77
2019-05-06T07:38:49.810Z,56.83
2019-05-06T07:39:53.399Z,56.67
2019-05-06T07:40:58.466Z,56.88
2019-05-06T07:42:03.534Z,56.88
2019-05-06T07:43:22.031Z,56.42
2019-05-06T07:44:43.145Z,55.76
2019-05-06T07:45:48.195Z,55.52
2019-05-06T07:46:56.351Z,55.25
2019-05-06T07:48:04.381Z,54.90
2019-05-06T07:49:07.803Z,54.46
2019-05-06T07:50:13.045Z,55.02
2019-05-06T07:51:16.664Z,54.96
2019-05-06T07:52:20.096Z,55.17
2019-05-06T07:53:23.598Z,54.88
2019-05-06T07:54:27.090Z,54.42
2019-05-06T07:55:32.623Z,54.33
2019-05-06T07:56:35.817Z,54.40
2019-05-06T07:57:39.332Z,54.46
2019-05-06T07:58:43.485Z,54.03
2019-05-06T07:59:47.104Z,53.73
2019-05-06T08:00:52.473Z,53.77
2019-05-06T08:01:55.694Z,53.57
2019-05-06T08:02:59.189Z,53.67
2019-05-06T08:04:02.620Z,53.77
2019-05-06T08:05:07.772Z,54.09
2019-05-06T08:06:13.289Z,54.22
2019-05-06T08:07:16.486Z,54.12
2019-05-06T08:08:19.991Z,53.49
2019-05-06T08:09:23.594Z,53.53
2019-05-06T08:10:27.203Z,53.50
2019-05-06T08:11:32.847Z,53.14
2019-05-06T08:12:35.861Z,52.91
2019-05-06T08:13:39.353Z,52.19
2019-05-06T08:14:43.428Z,52.02
2019-05-06T08:15:47.159Z,51.69
2019-05-06T08:17:02.235Z,51.49
2019-05-06T08:18:05.969Z,51.19
2019-05-06T08:19:09.462Z,50.92
2019-05-06T08:20:13.436Z,50.78
2019-05-06T08:21:18.589Z,49.74
2019-05-06T08:22:33.362Z,50.04
2019-05-06T08:23:42.820Z,50.01
2019-05-06T08:24:46.376Z,50.33
2019-05-06T08:25:54.377Z,50.33
2019-05-06T08:26:56.329Z,50.41
2019-05-06T08:27:59.759Z,49.73
2019-05-06T08:29:03.320Z,49.77
2019-05-06T08:30:08.455Z,49.52
2019-05-06T08:31:12.817Z,49.40
2019-05-06T08:32:16.320Z,49.16
2019-05-06T08:33:21.864Z,49.10
2019-05-06T08:34:24.972Z,49.75
2019-05-06T08:35:28.469Z,49.75
2019-05-06T08:36:42.797Z,49.95
2019-05-06T08:37:47.718Z,49.85
2019-05-06T08:39:04.435Z,49.12
2019-05-06T08:40:09.003Z,48.17
2019-05-06T08:41:12.455Z,48.17
2019-05-06T08:42:15.979Z,48.21
2019-05-06T08:43:19.533Z,47.54
2019-05-06T08:44:22.968Z,47.78
2019-05-06T08:45:26.473Z,47.87
2019-05-06T08:46:32.444Z,47.87
2019-05-06T08:47:35.178Z,48.10
2019-05-06T08:48:38.603Z,48.43
2019-05-06T08:50:02.455Z,47.84
2019-05-06T08:51:09.204Z,47.04
2019-05-06T08:52:14.379Z,46.89
2019-05-06T08:53:23.540Z,46.76
2019-05-06T08:54:29.282Z,47.11
2019-05-06T08:55:34.350Z,47.04
2019-05-06T08:56:37.854Z,47.05
2019-05-06T08:57:42.067Z,47.93
2019-05-06T08:58:46.113Z,46.31
2019-05-06T08:59:49.551Z,45.10
2019-05-06T09:01:09.204Z,43.80
2019-05-06T09:02:13.758Z,43.61
2019-05-06T09:03:17.521Z,43.61
2019-05-06T09:04:22.762Z,44.39
2019-05-06T09:05:26.166Z,44.67
2019-05-06T09:06:33.022Z,44.83
2019-05-06T09:07:34.747Z,44.36
2019-05-06T09:08:38.194Z,44.60
2019-05-06T09:09:42.088Z,44.16
2019-05-06T09:10:45.620Z,43.61
2019-05-06T09:11:49.192Z,42.37
2019-05-06T09:12:52.768Z,42.37
2019-05-06T09:13:56.348Z,43.14
2019-05-06T09:14:59.787Z,43.34
2019-05-06T09:16:03.650Z,42.97
2019-05-06T09:17:07.295Z,42.92
2019-05-06T09:18:12.426Z,42.82
2019-05-06T09:19:16.022Z,42.82
2019-05-06T09:20:19.513Z,43.95
2019-05-06T09:21:23.159Z,43.95
2019-05-06T09:22:26.592Z,43.81
2019-05-06T09:23:30.024Z,44.32
2019-05-06T09:24:33.553Z,44.15
2019-05-06T09:25:37.062Z,44.15
2019-05-06T09:27:00.461Z,44.30
2019-05-06T09:28:17.546Z,43.84
2019-05-06T09:29:34.458Z,44.21
2019-05-06T09:30:39.872Z,44.21
2019-05-06T09:31:47.940Z,44.40
2019-05-06T09:32:52.156Z,44.44
2019-05-06T09:34:05.867Z,43.38
2019-05-06T09:35:09.811Z,43.38
2019-05-06T09:36:13.369Z,42.91
2019-05-06T09:37:23.542Z,42.52
2019-05-06T09:38:26.102Z,42.59
2019-05-06T09:39:29.549Z,42.59
2019-05-06T09:40:32.984Z,43.00
2019-05-06T09:41:36.570Z,42.64
2019-05-06T09:42:40.082Z,42.64
2019-05-06T09:43:43.614Z,42.20
2019-05-06T09:44:50.505Z,41.99
2019-05-06T09:45:53.262Z,42.07
2019-05-06T09:46:56.693Z,42.43
2019-05-06T09:48:04.469Z,42.29
2019-05-06T09:49:09.514Z,42.50
2019-05-06T09:50:15.635Z,42.23
2019-05-06T09:51:19.133Z,42.81
2019-05-06T09:52:23.324Z,42.44
2019-05-06T09:53:28.512Z,42.84
2019-05-06T09:54:33.589Z,41.65
2019-05-06T09:55:43.002Z,41.68
2019-05-06T09:56:53.170Z,40.95
2019-05-06T09:57:57.833Z,41.31
2019-05-06T09:59:02.234Z,41.75
2019-05-06T10:00:07.776Z,41.96
2019-05-06T10:01:13.141Z,42.41
2019-05-06T10:02:16.717Z,41.63
2019-05-06T10:03:22.506Z,41.07
2019-05-06T10:04:25.297Z,41.41
2019-05-06T10:05:28.810Z,41.45
2019-05-06T10:06:32.818Z,41.23
2019-05-06T10:07:36.336Z,40.91
2019-05-06T10:08:39.851Z,41.65
2019-05-06T10:09:43.650Z,41.62
2019-05-06T10:10:58.653Z,40.60
2019-05-06T10:11:52.611Z,40.54
2019-05-06T10:12:56.324Z,40.46
2019-05-06T10:13:59.895Z,40.89
2019-05-06T10:15:03.866Z,40.89
2019-05-06T10:16:07.463Z,41.27
2019-05-06T10:17:13.010Z,41.61
2019-05-06T10:18:16.232Z,42.23
2019-05-06T10:19:19.797Z,41.28
2019-05-06T10:20:23.304Z,41.43
2019-05-06T10:21:26.826Z,41.48
2019-05-06T10:22:32.285Z,40.69
2019-05-06T10:23:35.531Z,40.63
2019-05-06T10:24:38.972Z,40.16
2019-05-06T10:25:43.929Z,40.36
2019-05-06T10:26:49.103Z,40.80
2019-05-06T10:27:57.197Z,40.70
2019-05-06T10:29:03.780Z,41.48
2019-05-06T10:30:13.180Z,41.48
2019-05-06T10:31:17.486Z,40.45
2019-05-06T10:32:25.313Z,41.09
2019-05-06T10:33:32.433Z,41.77
2019-05-06T10:34:35.729Z,42.04
2019-05-06T10:35:39.391Z,41.78
2019-05-06T10:37:19.098Z,41.73
2019-05-06T10:38:42.453Z,41.71
2019-05-06T10:39:48.969Z,41.36
2019-05-06T10:41:04.064Z,42.88
2019-05-06T10:42:13.086Z,42.69
2019-05-06T10:43:28.491Z,42.59
2019-05-06T10:44:34.965Z,41.98
2019-05-06T10:45:38.522Z,41.93
2019-05-06T10:46:43.032Z,41.59
2019-05-06T10:47:46.599Z,41.59
2019-05-06T10:48:50.026Z,41.99
2019-05-06T10:49:53.466Z,41.95
2019-05-06T10:51:03.425Z,41.98
2019-05-06T10:52:26.325Z,41.98
2019-05-06T10:53:29.819Z,42.28
2019-05-06T10:54:33.242Z,41.89
2019-05-06T10:55:38.385Z,42.09
2019-05-06T10:56:53.764Z,42.16
2019-05-06T10:57:48.862Z,41.99
2019-05-06T10:58:52.795Z,41.79
2019-05-06T10:59:56.304Z,42.08
2019-05-06T11:01:16.381Z,42.16
2019-05-06T11:02:27.341Z,42.34
2019-05-06T11:03:32.911Z,41.95
2019-05-06T11:04:35.978Z,41.60
2019-05-06T11:05:39.550Z,40.66
2019-05-06T11:06:43.185Z,39.80
2019-05-06T11:07:46.614Z,40.17
2019-05-06T11:08:52.392Z,40.76
2019-05-06T11:09:55.308Z,40.60
2019-05-06T11:11:12.468Z,40.77
2019-05-06T11:12:04.049Z,39.74
2019-05-06T11:13:07.638Z,40.34
2019-05-06T11:14:12.667Z,40.95
2019-05-06T11:15:16.547Z,40.88
2019-05-06T11:16:23.472Z,40.91
2019-05-06T11:17:25.263Z,41.01
2019-05-06T11:18:28.786Z,40.97
2019-05-06T11:19:33.051Z,41.01
2019-05-06T11:20:36.693Z,41.26
2019-05-06T11:21:44.731Z,41.08
2019-05-06T11:22:45.416Z,40.56
2019-05-06T11:23:48.868Z,40.53
2019-05-06T11:24:52.296Z,40.83
2019-05-06T11:25:55.729Z,40.33
2019-05-06T11:26:59.144Z,40.66
2019-05-06T11:28:03.046Z,40.36
2019-05-06T11:29:08.116Z,40.43
2019-05-06T11:30:16.442Z,38.79
2019-05-06T11:31:24.206Z,37.62
2019-05-06T11:32:41.143Z,38.25
2019-05-06T11:33:44.749Z,37.99
2019-05-06T11:35:03.696Z,38.44
2019-05-06T11:36:12.206Z,38.29
2019-05-06T11:37:23.102Z,38.67
2019-05-06T11:38:26.025Z,38.49
2019-05-06T11:39:29.555Z,38.88
2019-05-06T11:40:33.364Z,39.40
2019-05-06T11:41:36.769Z,39.78
2019-05-06T11:42:40.267Z,39.48
2019-05-06T11:43:43.776Z,39.11
2019-05-06T11:44:47.294Z,39.59
2019-05-06T11:45:52.128Z,39.70
2019-05-06T11:46:55.730Z,39.72
2019-05-06T11:47:59.173Z,39.78
2019-05-06T11:49:02.665Z,39.81
2019-05-06T11:50:07.902Z,40.01
2019-05-06T11:51:13.012Z,40.33
2019-05-06T11:52:16.424Z,40.57
2019-05-06T11:53:19.851Z,40.70
2019-05-06T11:54:24.512Z,40.75
2019-05-06T11:55:36.170Z,40.76
2019-05-06T11:56:47.958Z,40.74
2019-05-06T11:57:41.682Z,40.93
2019-05-06T11:58:50.034Z,40.94
2019-05-06T11:59:53.489Z,41.17
2019-05-06T12:00:57.804Z,40.96
2019-05-06T12:02:02.973Z,40.70
2019-05-06T12:03:06.385Z,40.71
2019-05-06T12:04:09.894Z,40.21
2019-05-06T12:05:13.788Z,40.36
2019-05-06T12:06:17.294Z,40.35
2019-05-06T12:07:24.188Z,39.97
2019-05-06T12:08:25.940Z,39.91
2019-05-06T12:09:29.409Z,39.70
2019-05-06T12:10:33.163Z,39.83
2019-05-06T12:11:36.865Z,39.96
2019-05-06T12:12:42.344Z,39.70
2019-05-06T12:13:45.526Z,39.63
2019-05-06T12:14:48.993Z,39.83
2019-05-06T12:15:52.572Z,40.12
2019-05-06T12:16:56.374Z,40.65
2019-05-06T12:17:59.837Z,40.95
2019-05-06T12:19:03.262Z,40.90
2019-05-06T12:20:07.565Z,40.60
2019-05-06T12:21:16.116Z,40.31
2019-05-06T12:22:16.213Z,40.63
2019-05-06T12:23:22.270Z,40.25
2019-05-06T12:24:24.880Z,40.01
2019-05-06T12:25:28.330Z,40.12
2019-05-06T12:26:32.312Z,40.21
2019-05-06T12:27:44.801Z,40.34
2019-05-06T12:28:48.299Z,39.57
2019-05-06T12:29:52.797Z,39.61
2019-05-06T12:30:56.984Z,39.62
2019-05-06T12:32:03.659Z,39.83
2019-05-06T12:33:08.797Z,39.91
2019-05-06T12:34:14.441Z,40.06
2019-05-06T12:35:17.601Z,40.25
2019-05-06T12:36:21.863Z,40.27
2019-05-06T12:37:26.539Z,40.53
2019-05-06T12:38:34.370Z,40.53
2019-05-06T12:39:39.446Z,40.72
2019-05-06T12:40:43.032Z,40.76
2019-05-06T12:42:03.187Z,41.02
2019-05-06T12:43:24.503Z,40.94
2019-05-06T12:44:28.287Z,41.07
2019-05-06T12:45:33.297Z,41.25
2019-05-06T12:46:38.463Z,41.58
2019-05-06T12:47:49.050Z,41.38
2019-05-06T12:48:52.479Z,41.15
2019-05-06T12:49:56.113Z,40.62
2019-05-06T12:51:03.077Z,40.66
2019-05-06T12:52:06.654Z,40.43
2019-05-06T12:53:10.075Z,40.50
2019-05-06T12:54:13.575Z,40.68
2019-05-06T12:55:21.653Z,41.17
2019-05-06T12:56:23.091Z,41.17
2019-05-06T12:57:26.657Z,41.28
2019-05-06T12:58:30.086Z,41.36
2019-05-06T12:59:33.528Z,41.53
2019-05-06T13:00:37.060Z,41.49
2019-05-06T13:01:44.895Z,41.47
2019-05-06T13:02:45.801Z,41.35
2019-05-06T13:03:49.297Z,41.78
2019-05-06T13:04:59.689Z,41.58
2019-05-06T13:05:58.012Z,41.66
2019-05-06T13:07:03.031Z,41.65
2019-05-06T13:08:06.916Z,41.73
2019-05-06T13:09:12.734Z,41.65
2019-05-06T13:10:18.160Z,41.54
2019-05-06T13:11:21.606Z,41.65
2019-05-06T13:12:26.753Z,41.63
2019-05-06T13:13:32.990Z,41.68
2019-05-06T13:14:35.467Z,41.65
2019-05-06T13:15:39.408Z,41.87
2019-05-06T13:16:42.860Z,41.85
2019-05-06T13:17:46.287Z,41.76
2019-05-06T13:18:51.738Z,41.80
2019-05-06T13:19:54.935Z,42.05
2019-05-06T13:20:58.466Z,42.04
2019-05-06T13:22:03.729Z,43.03
2019-05-06T13:23:17.414Z,44.13
2019-05-06T13:24:16.717Z,44.13
2019-05-06T13:25:20.146Z,44.20
2019-05-06T13:26:23.587Z,44.60
2019-05-06T13:27:27.917Z,44.30
2019-05-06T13:28:33.498Z,44.06
2019-05-06T13:29:37.100Z,43.96
2019-05-06T13:30:43.169Z,43.97
2019-05-06T13:31:45.982Z,44.10
2019-05-06T13:32:53.763Z,44.14
2019-05-06T13:34:08.030Z,44.28
2019-05-06T13:35:12.257Z,44.05
2019-05-06T13:36:15.854Z,43.81
2019-05-06T13:37:19.363Z,43.75
2019-05-06T13:38:22.891Z,43.65
2019-05-06T13:39:26.359Z,43.81
2019-05-06T13:40:32.894Z,44.08
2019-05-06T13:41:35.202Z,44.08
2019-05-06T13:42:42.465Z,43.47
2019-05-06T13:43:59.133Z,42.72
2019-05-06T13:45:03.028Z,42.07
2019-05-06T13:46:12.344Z,41.89
2019-05-06T13:47:33.215Z,41.74
2019-05-06T13:48:42.645Z,41.95
2019-05-06T13:49:47.829Z,41.79
2019-05-06T13:51:12.440Z,42.11
2019-05-06T13:52:16.921Z,42.33
2019-05-06T13:53:23.006Z,42.36
2019-05-06T13:54:25.600Z,42.30
2019-05-06T13:55:29.049Z,42.22
2019-05-06T13:56:33.261Z,41.86
2019-05-06T13:57:39.198Z,41.64
2019-05-06T13:58:43.107Z,41.36
2019-05-06T13:59:46.682Z,41.46
2019-05-06T14:00:52.003Z,41.28
2019-05-06T14:02:07.113Z,40.85
2019-05-06T14:03:08.433Z,40.93
2019-05-06T14:04:13.623Z,40.20
2019-05-06T14:05:18.993Z,40.50